Time;durP1;ratioP1;P1;durP2;ratioP2;P2;SDS_P1;SDS_P2;PMS_P1;PMS_P2;Temp;Humidity;BMP_temperature;BMP_pressure;BME280_temperature;BME280_humidity;BME280_pressure;Samples;Min_cycle;Max_cycle;Signal;HPM_P1;HPM_P2
2022/12/29 00:02:14;;;;;;;0.80;0.80;;;;;;;-2.48;93.19;99040.00;4971836;28;20082;-89
2022/12/29 00:04:41;;;;;;;0.90;0.90;;;;;;;-2.54;93.21;99020.34;4972663;28;20071;-88
2022/12/29 00:07:08;;;;;;;0.90;0.90;;;;;;;-2.54;92.63;99023.00;4971266;28;20047;-89
2022/12/29 00:09:35;;;;;;;0.90;0.90;;;;;;;-2.59;92.64;99027.09;4971116;28;20062;-87
2022/12/29 00:12:03;;;;;;;0.85;0.85;;;;;;;-2.60;92.71;99025.47;4986970;28;20062;-90
2022/12/29 00:17:17;;;;;;;0.75;0.75;;;;;;;-2.63;92.24;99029.25;4990304;28;20485;-88
2022/12/29 00:36:28;;;;;;;0.70;0.70;;;;;;;-2.80;91.80;99046.84;4962568;28;20053;-89
2022/12/29 00:44:33;;;;;;;0.63;0.63;;;;;;;-2.87;91.20;99056.38;4990580;28;20050;-88
2022/12/29 00:47:04;;;;;;;0.82;0.82;;;;;;;-2.90;91.05;99054.06;4990947;28;20073;-88
2022/12/29 00:49:32;;;;;;;0.82;0.82;;;;;;;-2.96;91.14;99036.16;4957625;28;20046;-89
2022/12/29 00:52:08;;;;;;;0.90;0.90;;;;;;;-3.00;90.92;99048.88;4973075;28;20057;-87
2022/12/29 00:54:37;;;;;;;0.70;0.70;;;;;;;-3.04;91.02;99060.72;4976503;28;20148;-88
2022/12/29 00:57:06;;;;;;;0.80;0.80;;;;;;;-3.10;90.89;99051.63;4993716;28;20054;-89
2022/12/29 00:59:40;;;;;;;0.68;0.68;;;;;;;-3.15;90.86;99047.78;4993703;28;20109;-91
2022/12/29 01:02:09;;;;;;;0.68;0.68;;;;;;;-3.21;91.20;99059.81;4976856;28;20047;-90
2022/12/29 01:04:36;;;;;;;0.90;0.90;;;;;;;-3.20;91.31;99058.00;4945474;28;20054;-90
2022/12/29 01:07:04;;;;;;;0.70;0.70;;;;;;;-3.21;91.53;99045.78;4995423;28;20832;-90
2022/12/29 01:12:39;;;;;;;1.00;1.00;;;;;;;-3.24;91.75;99046.94;4959563;28;20050;-89
2022/12/29 01:15:05;;;;;;;0.90;0.90;;;;;;;-3.22;91.80;99055.50;4959877;28;20527;-90
2022/12/29 01:17:36;;;;;;;0.70;0.70;;;;;;;-3.21;91.89;99053.72;4960979;28;20141;-89
2022/12/29 01:20:04;;;;;;;0.60;0.60;;;;;;;-3.25;91.93;99055.81;4976352;28;20065;-91
2022/12/29 01:22:31;;;;;;;0.85;0.85;;;;;;;-3.23;91.89;99071.50;4976882;28;20054;-90
2022/12/29 01:24:59;;;;;;;0.80;0.80;;;;;;;-3.30;91.94;99058.09;4981908;28;20054;-92
2022/12/29 01:27:27;;;;;;;0.70;0.70;;;;;;;-3.29;92.18;99055.31;5003172;28;20057;-90
2022/12/29 01:29:54;;;;;;;0.70;0.70;;;;;;;-3.32;92.43;99067.97;4982417;28;20101;-90
2022/12/29 01:32:21;;;;;;;1.00;1.00;;;;;;;-3.32;92.48;99063.53;4997448;28;20086;-90
2022/12/29 01:34:48;;;;;;;0.90;0.90;;;;;;;-3.33;92.73;99061.88;4980798;28;20080;-91
2022/12/29 01:37:16;;;;;;;0.77;0.77;;;;;;;-3.36;92.75;99064.00;4961115;28;20050;-92
2022/12/29 01:39:43;;;;;;;0.75;0.75;;;;;;;-3.37;93.02;99067.59;4976695;28;20137;-89
2022/12/29 01:42:18;;;;;;;0.80;0.80;;;;;;;-3.39;93.07;99067.78;4976016;28;20074;-87
2022/12/29 01:44:56;;;;;;;0.65;0.65;;;;;;;-3.42;92.87;99068.06;4992856;28;20057;-89
2022/12/29 01:47:34;;;;;;;0.70;0.70;;;;;;;-3.45;93.13;99057.00;4961031;28;20055;-91
2022/12/29 01:50:07;;;;;;;0.60;0.60;;;;;;;-3.46;93.49;99055.34;4991073;28;20428;-90
2022/12/29 01:52:37;;;;;;;;;;;;;;;-3.45;93.31;99057.00;4973351;28;20093;-91
2022/12/29 01:55:05;;;;;;;0.80;0.80;;;;;;;-3.56;93.07;99056.25;4997522;28;19984;-91
2022/12/29 01:57:34;;;;;;;0.80;0.80;;;;;;;-3.65;93.54;99051.06;4964917;28;20061;-90
2022/12/29 02:00:07;;;;;;;0.70;0.70;;;;;;;-3.63;93.92;99059.66;4987484;28;20061;-89
2022/12/29 02:02:48;;;;;;;0.70;0.70;;;;;;;-3.63;93.75;99059.66;5015222;28;20050;-90
2022/12/29 02:05:27;;;;;;;0.80;0.80;;;;;;;-3.69;93.71;99060.28;5015748;28;20134;-91
2022/12/29 02:07:54;;;;;;;0.70;0.70;;;;;;;-3.70;94.02;99067.34;4961706;28;20082;-89
2022/12/29 02:10:23;;;;;;;0.82;0.82;;;;;;;-3.71;94.44;99065.69;4975956;28;20050;-89
2022/12/29 02:12:51;;;;;;;0.65;0.65;;;;;;;-3.66;94.24;99071.34;4958840;28;20057;-90
2022/12/29 02:15:22;;;;;;;0.73;0.73;;;;;;;-3.65;94.17;99077.44;4991997;28;20050;-88
2022/12/29 02:18:05;;;;;;;0.77;0.77;;;;;;;-3.65;94.38;99072.97;4974846;28;20136;-91
2022/12/29 02:21:27;;;;;;;0.80;0.80;;;;;;;-3.64;94.41;99082.56;4944794;28;20133;-91
2022/12/29 02:24:03;;;;;;;0.70;0.70;;;;;;;-3.66;94.61;99076.63;4894099;29;20053;-88
2022/12/29 02:26:55;;;;;;;0.80;0.80;;;;;;;-3.63;94.76;99083.41;4894436;29;20140;-87
2022/12/29 02:29:31;;;;;;;0.90;0.90;;;;;;;-3.61;94.85;99081.44;4880382;29;20151;-89
2022/12/29 02:32:16;;;;;;;0.68;0.68;;;;;;;-3.64;94.44;99077.28;4867916;29;20072;-89
2022/12/29 02:34:49;;;;;;;0.57;0.57;;;;;;;-3.61;94.58;99087.53;4904398;29;20108;-89
2022/12/29 02:37:41;;;;;;;0.70;0.70;;;;;;;-3.63;94.22;99089.50;4886776;29;20052;-89
2022/12/29 02:40:20;;;;;;;0.52;0.52;;;;;;;-3.65;94.31;99088.00;4909171;29;20203;-89
2022/12/29 02:43:05;;;;;;;0.90;0.90;;;;;;;-3.66;94.31;99089.81;4878391;29;20624;-89
2022/12/29 02:45:51;;;;;;;0.73;0.73;;;;;;;-3.68;94.45;99089.13;4895170;29;20064;-89
2022/12/29 02:48:38;;;;;;;0.60;0.60;;;;;;;-3.70;94.60;99091.06;4878541;29;20059;-89
2022/12/29 02:51:14;;;;;;;0.63;0.63;;;;;;;-3.72;94.35;99082.50;4879617;29;20559;-90
2022/12/29 02:56:29;;;;;;;0.80;0.80;;;;;;;-3.88;94.12;99088.44;4893412;28;20525;-90
2022/12/29 02:58:56;;;;;;;0.80;0.80;;;;;;;-3.89;94.38;99091.25;4969620;28;20065;-91
2022/12/29 03:01:29;;;;;;;0.80;0.80;;;;;;;-3.89;94.41;99091.25;4972217;28;20141;-90
2022/12/29 03:04:47;;;;;;;0.60;0.60;;;;;;;-3.89;94.51;99093.88;4976198;28;20097;-90
2022/12/29 03:07:20;;;;;;;0.85;0.85;;;;;;;-3.92;94.77;99097.66;4963128;28;20062;-92
2022/12/29 03:10:05;;;;;;;0.70;0.70;;;;;;;-3.98;94.60;99077.97;4976643;28;20262;-89
2022/12/29 03:16:07;;;;;;;0.90;0.90;;;;;;;-4.05;94.62;99086.63;4968868;28;20061;-89
2022/12/29 03:18:51;;;;;;;0.70;0.70;;;;;;;-4.07;94.59;99091.22;4960186;28;20054;-89
2022/12/29 03:24:41;;;;;;;0.80;0.80;;;;;;;-4.28;95.08;99104.66;4949903;28;20141;-89
2022/12/29 03:27:10;;;;;;;0.80;0.80;;;;;;;-4.35;95.40;99099.16;4942395;28;20420;-89
2022/12/29 03:29:43;;;;;;;0.80;0.80;;;;;;;-4.29;95.55;99100.38;4958950;28;20092;-87
2022/12/29 03:32:11;;;;;;;0.90;0.90;;;;;;;-4.29;95.62;99103.00;4940195;28;20101;-89
2022/12/29 03:34:39;;;;;;;0.80;0.80;;;;;;;-4.30;95.67;99098.69;4960994;28;20049;-92
2022/12/29 03:37:18;;;;;;;0.90;0.90;;;;;;;-4.21;95.93;99108.38;4970158;28;20125;-91
2022/12/29 03:39:48;;;;;;;0.80;0.80;;;;;;;-4.22;95.51;99101.44;4941622;28;20057;-88
2022/12/29 03:42:18;;;;;;;0.82;0.82;;;;;;;-4.23;95.80;99105.88;4981014;28;20042;-92
2022/12/29 03:44:47;;;;;;;0.80;0.80;;;;;;;-4.21;96.00;99109.19;4956244;28;20461;-93
2022/12/29 03:47:15;;;;;;;0.70;0.70;;;;;;;-4.20;95.87;99110.88;4985632;28;20054;-91
2022/12/29 03:49:44;;;;;;;0.60;0.60;;;;;;;-4.19;95.89;99116.97;4986689;28;20054;-93
2022/12/29 03:52:11;;;;;;;0.70;0.70;;;;;;;-4.15;95.92;99116.53;4989244;28;20050;-90
2022/12/29 03:54:43;;;;;;;0.80;0.80;;;;;;;-4.10;95.63;99121.34;4987268;28;20038;-91
2022/12/29 03:57:19;;;;;;;0.70;0.70;;;;;;;-4.08;95.57;99124.66;4992957;28;20054;-92
2022/12/29 03:59:56;;;;;;;1.00;1.00;;;;;;;-4.20;95.62;99102.97;4623070;23;10002212;-92
2022/12/29 04:02:24;;;;;;;0.80;0.80;;;;;;;-4.06;95.59;99117.44;4957527;28;20081;-92
2022/12/29 04:04:53;;;;;;;0.80;0.80;;;;;;;-4.01;95.44;99131.00;4961465;28;20049;-89
2022/12/29 04:07:20;;;;;;;0.70;0.70;;;;;;;-3.98;95.56;99135.97;4957913;28;20069;-90
2022/12/29 04:09:50;;;;;;;0.70;0.70;;;;;;;-4.02;95.36;99129.34;4979583;28;20129;-90
2022/12/29 04:12:21;;;;;;;1.02;1.02;;;;;;;-4.01;95.40;99130.16;4928394;28;20047;-90
2022/12/29 04:14:49;;;;;;;0.70;0.70;;;;;;;-3.97;95.34;99140.28;4926015;29;20083;-90
2022/12/29 04:17:17;;;;;;;0.90;0.90;;;;;;;-3.96;95.12;99133.19;4922524;29;20571;-91
2022/12/29 04:19:46;;;;;;;0.70;0.70;;;;;;;-3.95;95.06;99133.06;4926435;29;20051;-90
2022/12/29 04:22:13;;;;;;;0.60;0.60;;;;;;;-3.93;94.77;99144.25;4962265;28;20063;-90
2022/12/29 04:24:40;;;;;;;0.60;0.60;;;;;;;-3.93;94.69;99144.25;4928558;29;20981;-91
2022/12/29 04:27:09;;;;;;;0.60;0.60;;;;;;;-3.99;95.06;99136.94;4914784;29;20054;-92
2022/12/29 04:29:36;;;;;;;0.77;0.77;;;;;;;-3.99;94.83;99139.59;4969384;29;20065;-90
2022/12/29 04:32:22;;;;;;;0.77;0.77;;;;;;;-4.01;94.73;99141.53;4958843;28;20058;-93
2022/12/29 04:34:56;;;;;;;0.60;0.60;;;;;;;-3.96;94.44;99152.47;4967168;28;20138;-93
2022/12/29 04:37:23;;;;;;;0.60;0.60;;;;;;;-3.95;94.19;99153.28;4952160;29;20051;-91
2022/12/29 04:39:52;;;;;;;0.70;0.70;;;;;;;-3.96;94.33;99146.38;4935613;28;20042;-91
2022/12/29 04:42:22;;;;;;;0.60;0.60;;;;;;;-3.97;93.97;99147.38;4985017;28;20043;-91
2022/12/29 04:44:51;;;;;;;0.60;0.60;;;;;;;-4.03;94.06;99148.75;4946536;28;20066;-90
2022/12/29 04:47:33;;;;;;;0.60;0.60;;;;;;;-4.02;93.94;99158.34;4957059;28;20062;-91
2022/12/29 04:50:19;;;;;;;0.90;0.90;;;;;;;-4.00;93.75;99172.22;4976895;28;20051;-92
2022/12/29 04:53:04;;;;;;;0.70;0.70;;;;;;;-4.06;93.51;99159.59;4949460;29;20510;-91
2022/12/29 04:55:33;;;;;;;0.70;0.70;;;;;;;-4.03;93.53;99164.56;4954362;29;20051;-94
2022/12/29 04:58:13;;;;;;;0.70;0.70;;;;;;;-4.09;93.27;99162.53;4941257;28;20059;-93
2022/12/29 05:00:54;;;;;;;0.70;0.70;;;;;;;-4.11;93.75;99153.94;4951072;28;20122;-93
2022/12/29 05:03:24;;;;;;;0.60;0.60;;;;;;;-4.04;93.71;99167.38;4958652;29;20573;-91
2022/12/29 05:06:06;;;;;;;0.90;0.90;;;;;;;-4.05;93.70;99166.56;4919681;28;20048;-92
2022/12/29 05:08:34;;;;;;;0.70;0.70;;;;;;;-4.03;93.67;99169.03;4951822;28;20054;-93
2022/12/29 05:11:14;;;;;;;0.88;0.88;;;;;;;-4.08;93.75;99164.19;4940030;28;20047;-92
2022/12/29 05:13:53;;;;;;;0.80;0.80;;;;;;;-4.08;94.11;99174.72;4953475;29;20129;-90
2022/12/29 05:16:25;;;;;;;0.80;0.80;;;;;;;-4.09;93.88;99169.63;4944078;28;20051;-91
2022/12/29 05:18:56;;;;;;;0.80;0.80;;;;;;;-4.13;93.91;99171.72;4935394;29;20066;-89
2022/12/29 05:21:24;;;;;;;0.90;0.90;;;;;;;-4.14;94.08;99167.44;4949568;29;20047;-89
2022/12/29 05:23:51;;;;;;;0.80;0.80;;;;;;;-4.23;93.98;99163.03;4946697;28;20051;-92
2022/12/29 05:26:20;;;;;;;0.63;0.63;;;;;;;-4.08;93.58;99185.28;4943437;28;20510;-91
2022/12/29 05:29:11;;;;;;;0.70;0.70;;;;;;;-4.08;93.64;99190.56;4941014;29;20047;-91
2022/12/29 05:31:39;;;;;;;0.60;0.60;;;;;;;-4.20;93.59;99179.38;4932791;29;20082;-92
2022/12/29 05:34:07;;;;;;;0.90;0.90;;;;;;;-4.23;93.75;99190.22;4945827;29;20059;-92
2022/12/29 05:36:40;;;;;;;0.80;0.80;;;;;;;-4.32;93.46;99174.44;4962386;29;20078;-91
2022/12/29 05:39:09;;;;;;;0.80;0.80;;;;;;;-4.32;93.66;99185.00;4927427;29;20133;-91
2022/12/29 05:41:37;;;;;;;0.70;0.70;;;;;;;-4.36;93.82;99193.16;4947931;29;20047;-91
2022/12/29 05:44:04;;;;;;;0.75;0.75;;;;;;;-4.37;93.90;99188.88;4929833;29;20103;-92
2022/12/29 05:46:42;;;;;;;0.80;0.80;;;;;;;-4.32;93.86;99200.81;4929724;29;20138;-92
2022/12/29 05:49:32;;;;;;;0.80;0.80;;;;;;;-4.31;93.37;99198.00;4960922;29;20047;-93
2022/12/29 05:52:08;;;;;;;0.60;0.60;;;;;;;-4.34;92.89;99197.47;4899582;29;20054;-92
2022/12/29 05:54:36;;;;;;;0.80;0.80;;;;;;;-4.40;93.04;99189.19;4930758;29;20162;-93
2022/12/29 05:57:10;;;;;;;1.33;1.23;;;;;;;-4.48;92.99;99169.78;4942841;29;20110;-94
2022/12/29 06:00:01;;;;;;;0.60;0.60;;;;;;;-4.44;93.21;99184.34;4953615;28;20391;-90
2022/12/29 06:02:40;;;;;;;0.73;0.73;;;;;;;-4.34;93.48;99200.13;4966480;28;20085;-92
2022/12/29 06:05:09;;;;;;;0.75;0.75;;;;;;;-4.30;93.13;99198.84;4932744;28;20098;-91
2022/12/29 06:07:44;;;;;;;0.85;0.85;;;;;;;-4.25;92.97;99193.97;4964678;28;20105;-92
2022/12/29 06:10:15;;;;;;;0.88;0.88;;;;;;;-4.27;92.83;99188.03;4949341;28;20532;-95
2022/12/29 06:13:03;;;;;;;0.90;0.90;;;;;;;-4.32;92.52;99200.81;4951343;28;20050;-93
2022/12/29 06:15:34;;;;;;;0.60;0.60;;;;;;;-4.37;91.93;99198.59;4947550;28;20418;-91
2022/12/29 06:18:05;;;;;;;0.77;0.77;;;;;;;-4.36;92.34;99205.50;4932994;28;20051;-91
2022/12/29 06:20:38;;;;;;;0.80;0.80;;;;;;;-4.34;92.23;99208.84;4965929;28;20134;-92
2022/12/29 06:23:07;;;;;;;0.80;0.80;;;;;;;-4.34;91.88;99206.22;4947361;28;20142;-92
2022/12/29 06:25:51;;;;;;;0.85;0.85;;;;;;;-4.27;92.05;99212.56;4933344;28;20223;-93
2022/12/29 06:28:29;;;;;;;0.90;0.90;;;;;;;-4.26;91.26;99213.38;4952892;28;20227;-92
2022/12/29 06:30:58;;;;;;;0.80;0.80;;;;;;;-4.28;91.50;99212.69;4950342;28;20402;-92
2022/12/29 06:33:31;;;;;;;0.80;0.80;;;;;;;-4.32;91.56;99204.25;4955504;28;20047;-93
2022/12/29 06:36:32;;;;;;;0.93;0.93;;;;;;;-4.19;91.28;99211.84;4950262;28;20635;-91
2022/12/29 06:39:16;;;;;;;0.77;0.77;;;;;;;-4.22;91.42;99206.88;4958903;28;20043;-92
2022/12/29 06:41:59;;;;;;;0.80;0.80;;;;;;;-4.12;91.50;99215.56;4955873;28;20051;-92
2022/12/29 06:44:43;;;;;;;1.02;1.02;;;;;;;-4.12;91.26;99217.38;4937430;28;20055;-92
2022/12/29 06:47:14;;;;;;;0.75;0.75;;;;;;;-4.08;91.39;99208.19;4966647;28;20047;-93
2022/12/29 06:49:43;;;;;;;0.90;0.90;;;;;;;-4.12;91.53;99202.38;4948997;28;20047;-93
2022/12/29 06:52:15;;;;;;;0.88;0.88;;;;;;;-4.07;91.02;99212.50;4948353;28;20061;-94
2022/12/29 06:54:52;;;;;;;0.60;0.60;;;;;;;-4.17;91.14;99202.81;4937721;28;20054;-94
2022/12/29 06:57:29;;;;;;;1.02;1.02;;;;;;;-4.21;91.24;99195.34;4951369;28;20051;-92
2022/12/29 06:59:58;;;;;;;0.93;0.93;;;;;;;-4.09;90.75;99217.06;4966093;28;20047;-94
2022/12/29 07:02:27;;;;;;;0.90;0.90;;;;;;;-4.24;90.51;99199.09;4951695;28;20126;-93
2022/12/29 07:04:56;;;;;;;0.82;0.82;;;;;;;-4.16;90.46;99209.72;4934445;28;20073;-93
2022/12/29 07:07:29;;;;;;;1.15;1.13;;;;;;;-4.06;90.28;99225.50;4966186;28;20675;-93
2022/12/29 07:10:11;;;;;;;0.80;0.80;;;;;;;-4.03;90.15;99232.31;4935801;28;20127;-93
2022/12/29 07:12:55;;;;;;;0.90;0.90;;;;;;;-4.12;90.01;99226.09;4924859;29;20052;-93
2022/12/29 07:15:27;;;;;;;0.93;0.93;;;;;;;-4.13;89.87;99208.59;4911372;29;20052;-92
2022/12/29 07:17:59;;;;;;;0.65;0.65;;;;;;;-4.00;90.04;99230.22;4891663;29;20062;-92
2022/12/29 07:20:41;;;;;;;;;;;;;;;;;;;;;
2022/12/29 07:23:16;;;;;;;0.93;0.93;;;;;;;-4.09;89.60;99211.81;4894840;29;20103;-91
2022/12/29 07:25:59;;;;;;;0.90;0.90;;;;;;;-4.05;89.57;99219.28;4920711;29;20043;-93
2022/12/29 07:28:26;;;;;;;1.00;1.00;;;;;;;-3.96;89.79;99221.03;4875676;29;20044;-92
2022/12/29 07:30:57;;;;;;;0.70;0.70;;;;;;;-3.99;89.34;99226.59;4907684;29;20146;-92
2022/12/29 07:33:39;;;;;;;0.95;0.95;;;;;;;-4.04;89.64;99205.13;4893535;29;20056;-92
2022/12/29 07:36:21;;;;;;;1.00;1.00;;;;;;;-4.09;89.51;99196.81;4869087;29;20059;-94
2022/12/29 07:39:09;;;;;;;;;;;;;;;-4.00;89.58;99232.84;4883465;29;20064;-95
2022/12/29 07:41:51;;;;;;;0.90;0.90;;;;;;;-4.05;89.84;99226.34;4895051;29;19927;-93
2022/12/29 07:44:44;;;;;;;0.90;0.90;;;;;;;-4.10;89.73;99220.66;4871035;29;20063;-94
2022/12/29 07:47:50;;;;;;;0.80;0.80;;;;;;;-3.94;89.88;99229.63;4869868;29;20053;-93
2022/12/29 07:50:36;;;;;;;0.85;0.85;;;;;;;-3.90;89.83;99227.50;4865861;29;20067;-92
2022/12/29 07:53:04;;;;;;;0.90;0.90;;;;;;;-3.86;89.96;99228.06;4896940;29;20055;-94
2022/12/29 07:55:45;;;;;;;1.10;1.10;;;;;;;-3.85;89.89;99222.63;4911306;29;20082;-93
2022/12/29 07:58:18;;;;;;;1.00;1.00;;;;;;;-3.89;89.53;99225.72;4911499;29;20055;-93
2022/12/29 08:00:56;;;;;;;0.80;0.80;;;;;;;-3.85;89.28;99232.34;4916913;29;20126;-93
2022/12/29 08:04:01;;;;;;;0.70;0.70;;;;;;;-3.81;89.33;99239.00;4935845;28;20099;-91
2022/12/29 08:07:10;;;;;;;0.90;0.90;;;;;;;-3.85;89.45;99248.16;4911332;29;20245;-93
2022/12/29 08:09:51;;;;;;;0.80;0.80;;;;;;;-3.90;89.54;99239.88;4914937;29;20040;-93
2022/12/29 08:12:20;;;;;;;1.00;1.00;;;;;;;-3.76;89.57;99253.41;4945075;29;20055;-95
2022/12/29 08:15:02;;;;;;;0.70;0.70;;;;;;;-3.89;89.68;99218.63;4901083;29;20151;-92
2022/12/29 08:17:32;;;;;;;0.80;0.80;;;;;;;-3.67;89.73;99245.59;4915527;29;20059;-93
2022/12/29 08:20:13;;;;;;;0.90;0.90;;;;;;;-3.63;89.49;99250.41;4937287;29;20134;-92
2022/12/29 08:23:20;;;;;;;0.90;0.90;;;;;;;-3.66;89.66;99232.25;4917939;29;20054;-92
2022/12/29 08:26:09;;;;;;;1.00;1.00;;;;;;;-3.56;89.28;99246.22;4947005;28;20070;-93
2022/12/29 08:28:55;;;;;;;1.00;1.00;;;;;;;-3.68;88.65;99257.94;4944388;28;20066;-92
2022/12/29 08:31:55;;;;;;;0.90;0.90;;;;;;;-3.77;88.95;99243.03;4950700;28;20039;-93
2022/12/29 08:34:26;;;;;;;0.80;0.80;;;;;;;-3.71;89.02;99242.41;4945248;28;20082;-93
2022/12/29 08:37:08;;;;;;;0.75;0.75;;;;;;;-3.56;89.10;99243.56;4946677;28;20043;-91
2022/12/29 08:39:44;;;;;;;0.98;0.98;;;;;;;-3.56;89.25;99240.94;4972940;28;20177;-93
2022/12/29 08:42:30;;;;;;;0.90;0.90;;;;;;;-3.36;89.37;99251.38;4966061;28;20055;-92
2022/12/29 08:44:58;;;;;;;1.08;1.08;;;;;;;-3.30;89.34;99250.78;4996499;28;20102;-91
2022/12/29 08:47:26;;;;;;;0.80;0.80;;;;;;;-3.25;89.37;99243.22;4989231;28;20088;-90
2022/12/29 08:49:55;;;;;;;0.93;0.93;;;;;;;-3.15;88.94;99253.72;4979460;28;20465;-94
2022/12/29 08:52:35;;;;;;;1.00;1.00;;;;;;;-3.10;88.85;99240.91;4961545;28;20140;-90
2022/12/29 08:55:03;;;;;;;1.00;1.00;;;;;;;-3.00;88.72;99235.53;4996403;28;20081;-92
2022/12/29 08:57:30;;;;;;;1.10;1.10;;;;;;;-2.90;88.00;99245.03;4965771;28;20073;-90
2022/12/29 09:00:10;;;;;;;1.00;1.00;;;;;;;-3.09;87.55;99231.97;4984876;28;20082;-88
2022/12/29 09:02:37;;;;;;;1.00;1.00;;;;;;;-3.16;87.36;99246.78;4965281;28;20071;-91
2022/12/29 09:05:05;;;;;;;0.90;0.90;;;;;;;-3.22;87.62;99242.09;4971365;28;20069;-88
2022/12/29 09:07:32;;;;;;;0.88;0.88;;;;;;;-3.15;88.10;99244.00;4616524;28;9999719;-88
2022/12/29 09:09:59;;;;;;;1.05;1.05;;;;;;;-3.08;88.25;99241.59;4977087;28;20062;-89
2022/12/29 09:12:29;;;;;;;1.02;1.02;;;;;;;-3.02;88.41;99242.78;4977946;28;20112;-88
2022/12/29 09:15:02;;;;;;;1.10;1.10;;;;;;;-3.03;88.36;99246.41;4987756;28;20129;-87
2022/12/29 09:17:45;;;;;;;1.10;1.10;;;;;;;-3.01;88.12;99241.78;4974345;28;20054;-92
2022/12/29 09:20:17;;;;;;;0.98;0.98;;;;;;;-3.06;87.72;99243.09;4962612;28;20572;-90
2022/12/29 09:22:45;;;;;;;0.68;0.68;;;;;;;-3.14;87.89;99243.03;4959657;28;20054;-85
2022/12/29 09:25:13;;;;;;;0.80;0.80;;;;;;;-3.13;88.10;99238.56;4988883;28;20058;-88
2022/12/29 09:27:40;;;;;;;1.10;1.10;;;;;;;-3.01;88.58;99244.44;4997256;28;20042;-87
2022/12/29 09:30:11;;;;;;;0.90;0.90;;;;;;;-3.02;88.03;99242.78;4970547;28;20065;-87
2022/12/29 09:32:39;;;;;;;0.80;0.80;;;;;;;-3.16;87.97;99239.69;4975461;28;20511;-86
2022/12/29 09:35:13;;;;;;;0.90;0.90;;;;;;;-3.13;88.28;99247.31;4965261;28;20128;-86
2022/12/29 09:37:40;;;;;;;0.82;0.82;;;;;;;-3.19;88.41;99237.38;4968246;28;20047;-88
2022/12/29 09:40:10;;;;;;;0.70;0.70;;;;;;;-3.20;88.55;99240.16;4981887;28;20066;-87
2022/12/29 09:42:42;;;;;;;0.60;0.60;;;;;;;-3.18;88.81;99239.00;4955355;28;20061;-88
2022/12/29 09:45:35;;;;;;;0.63;0.63;;;;;;;-3.16;88.99;99234.41;4981966;28;20050;-87
2022/12/29 09:48:04;;;;;;;0.80;0.80;;;;;;;-3.15;89.05;99237.88;4971244;28;20050;-87
2022/12/29 09:50:38;;;;;;;0.80;0.80;;;;;;;-3.07;89.12;99235.31;4961326;28;20149;-85
2022/12/29 09:53:18;;;;;;;1.02;1.02;;;;;;;-3.03;89.15;99231.41;4975713;28;20055;-85
2022/12/29 09:55:48;;;;;;;0.90;0.90;;;;;;;-2.98;89.13;99229.13;4984529;28;20052;-86
2022/12/29 09:58:30;;;;;;;0.95;0.95;;;;;;;-2.92;88.79;99230.31;4984981;28;20568;-87
2022/12/29 10:01:05;;;;;;;0.85;0.85;;;;;;;-2.85;88.76;99226.09;4968858;28;20453;-89
2022/12/29 10:03:47;;;;;;;0.90;0.90;;;;;;;-2.73;88.34;99226.69;4957678;28;20046;-88
2022/12/29 10:06:24;;;;;;;1.00;1.00;;;;;;;-2.76;88.35;99216.41;4946173;28;20051;-88
2022/12/29 10:09:10;;;;;;;1.00;1.00;;;;;;;-2.79;88.00;99228.13;4969050;28;20528;-89
2022/12/29 10:12:08;;;;;;;0.93;0.93;;;;;;;-2.80;88.18;99226.47;4968908;28;20058;-88
2022/12/29 10:15:06;;;;;;;0.73;0.73;;;;;;;-2.71;88.14;99229.97;4960647;28;20054;-87
2022/12/29 10:17:39;;;;;;;1.00;1.00;;;;;;;-2.71;87.85;99228.19;4974219;28;20134;-87
2022/12/29 10:20:26;;;;;;;0.80;0.80;;;;;;;-2.67;88.01;99223.41;4967724;28;20437;-87
2022/12/29 10:23:05;;;;;;;0.80;0.80;;;;;;;-2.51;88.21;99230.63;4974898;28;20097;-87
2022/12/29 10:25:37;;;;;;;0.85;0.85;;;;;;;-2.58;87.63;99235.72;4973667;28;20085;-88
2022/12/29 10:28:30;;;;;;;0.80;0.80;;;;;;;-2.60;87.73;99242.13;4978797;28;20050;-88
2022/12/29 10:30:59;;;;;;;1.00;1.00;;;;;;;-2.66;87.34;99238.28;4977277;28;20065;-87
2022/12/29 10:33:38;;;;;;;1.00;1.00;;;;;;;-2.67;87.57;99237.44;4971631;28;20065;-88
2022/12/29 10:36:16;;;;;;;0.90;0.90;;;;;;;-2.70;87.50;99234.31;4977489;28;20066;-87
2022/12/29 10:38:49;;;;;;;0.82;0.82;;;;;;;-2.74;87.69;99230.28;4994042;28;20050;-88
2022/12/29 10:55:15;;;;;;;0.70;0.70;;;;;;;-2.57;88.08;99237.38;4958337;28;20106;-93
2022/12/29 10:57:53;;;;;;;0.80;0.80;;;;;;;-2.59;87.85;99225.28;4905346;29;20052;-92
2022/12/29 11:05:01;;;;;;;0.88;0.88;;;;;;;-2.50;87.90;99224.38;4875589;29;20085;-91
2022/12/29 11:07:30;;;;;;;0.85;0.85;;;;;;;-2.49;88.06;99224.19;4865037;29;20053;-92
2022/12/29 11:10:30;;;;;;;1.00;1.00;;;;;;;-2.43;88.25;99222.75;4878674;29;20078;-93
2022/12/29 11:13:15;;;;;;;0.73;0.73;;;;;;;-2.45;88.21;99216.81;4899091;29;20147;-89
2022/12/29 11:15:43;;;;;;;0.73;0.73;;;;;;;-2.43;88.26;99212.16;4876668;29;20100;-91
2022/12/29 11:18:31;;;;;;;0.98;0.98;;;;;;;-2.38;88.34;99212.56;4899266;29;20092;-89
2022/12/29 11:21:02;;;;;;;0.85;0.85;;;;;;;-2.36;88.51;99209.75;4918692;29;20535;-91
2022/12/29 11:23:43;;;;;;;0.75;0.75;;;;;;;-2.35;88.33;99211.41;4858152;29;20085;-90
2022/12/29 11:26:49;;;;;;;1.00;1.00;;;;;;;-2.27;88.34;99206.16;4908619;29;20557;-91
2022/12/29 11:29:21;;;;;;;0.90;0.90;;;;;;;-2.40;88.53;99191.56;4855143;29;20051;-89
2022/12/29 11:31:52;;;;;;;0.75;0.75;;;;;;;-2.34;88.73;99213.88;4917094;29;20056;-94
2022/12/29 11:34:35;;;;;;;0.98;0.98;;;;;;;-2.30;88.57;99212.59;4911046;29;20060;-90
2022/12/29 11:37:10;;;;;;;0.90;0.90;;;;;;;-2.36;88.75;99200.00;4919256;29;20048;-88
2022/12/29 11:39:40;;;;;;;0.73;0.73;;;;;;;-2.33;88.78;99218.19;4913273;29;20523;-89
2022/12/29 11:42:16;;;;;;;0.90;0.90;;;;;;;-2.42;88.33;99208.56;4920467;29;20221;-88
2022/12/29 11:44:46;;;;;;;0.90;0.90;;;;;;;-2.48;88.81;99215.31;4927923;29;20082;-90
2022/12/29 11:47:29;;;;;;;0.88;0.88;;;;;;;-2.38;88.97;99220.50;4613639;28;10000463;-88
2022/12/29 11:49:59;;;;;;;0.98;0.98;;;;;;;-2.32;88.93;99217.22;4943671;28;20551;-89
2022/12/29 11:52:29;;;;;;;1.00;1.00;;;;;;;-2.49;88.76;99226.00;4937049;28;20055;-88
2022/12/29 11:55:03;;;;;;;1.05;1.05;;;;;;;-2.43;89.10;99228.03;4969038;23;20465;-88
2022/12/29 11:57:33;;;;;;;1.00;1.00;;;;;;;-2.46;89.08;99228.34;4961095;28;20051;-88
2022/12/29 12:00:03;;;;;;;1.00;1.00;;;;;;;-2.52;89.31;99228.97;4933721;28;20046;-91
2022/12/29 12:02:50;;;;;;;0.90;0.90;;;;;;;-2.42;89.54;99238.44;4932287;28;20575;-90
2022/12/29 12:05:17;;;;;;;0.88;0.88;;;;;;;-2.35;89.67;99233.38;4935062;28;20047;-87
2022/12/29 12:07:49;;;;;;;0.90;0.90;;;;;;;-2.42;89.97;99235.00;4959438;28;20051;-92
2022/12/29 12:10:30;;;;;;;0.90;0.90;;;;;;;-2.39;89.94;99234.66;4935952;29;20051;-88
2022/12/29 12:13:57;;;;;;;0.85;0.85;;;;;;;-2.31;90.63;99234.72;4933827;29;20047;-88
2022/12/29 12:16:34;;;;;;;0.80;0.80;;;;;;;-2.32;90.34;99234.88;4861241;29;20908;-88
2022/12/29 12:19:12;;;;;;;0.90;0.90;;;;;;;-2.33;90.43;99234.06;4878577;29;20079;-90
2022/12/29 12:21:41;;;;;;;0.70;0.70;;;;;;;-2.28;90.57;99233.56;4899334;29;20059;-90
2022/12/29 12:24:20;;;;;;;0.70;0.70;;;;;;;-2.33;90.79;99235.84;4863822;29;20083;-89
2022/12/29 12:27:13;;;;;;;0.77;0.77;;;;;;;-2.33;91.18;99234.06;4889863;29;20817;-85
2022/12/29 12:29:58;;;;;;;1.00;1.00;;;;;;;-2.36;91.56;99239.63;4888988;29;20084;-88
2022/12/29 12:32:27;;;;;;;0.80;0.80;;;;;;;-2.37;91.55;99231.88;4884644;29;20068;-83
2022/12/29 12:34:55;;;;;;;0.90;0.90;;;;;;;-2.47;91.70;99231.97;4895117;29;20366;-84
2022/12/29 12:37:39;;;;;;;0.80;0.80;;;;;;;-2.40;92.02;99233.84;4885783;29;20144;-86
2022/12/29 12:40:21;;;;;;;0.80;0.80;;;;;;;-2.37;91.98;99229.25;4887016;29;20144;-85
2022/12/29 12:43:15;;;;;;;0.80;0.80;;;;;;;-2.34;92.26;99229.75;4891247;29;20667;-86
2022/12/29 12:46:05;;;;;;;0.93;0.93;;;;;;;-2.39;92.49;99224.09;4887716;29;20048;-88
2022/12/29 12:48:47;;;;;;;0.80;0.80;;;;;;;-2.42;92.66;99227.06;4876879;29;20049;-86
2022/12/29 12:51:20;;;;;;;1.00;1.00;;;;;;;-2.39;92.71;99224.09;4896279;29;20861;-87
2022/12/29 12:54:06;;;;;;;0.73;0.73;;;;;;;-2.37;92.83;99229.25;4950611;28;20051;-87
2022/12/29 12:57:01;;;;;;;0.68;0.68;;;;;;;-2.37;92.99;99231.88;4961816;28;20533;-88
2022/12/29 13:00:00;;;;;;;0.90;0.90;;;;;;;-2.42;93.34;99225.25;4950953;28;20050;-87
2022/12/29 13:02:48;;;;;;;0.70;0.70;;;;;;;-2.44;93.23;99221.91;4957125;28;20051;-85
2022/12/29 13:05:43;;;;;;;0.75;0.75;;;;;;;-2.51;93.43;99222.69;4954378;28;20061;-87
2022/12/29 13:08:38;;;;;;;1.00;1.00;;;;;;;-2.45;93.66;99228.19;4978618;28;20047;-87
2022/12/29 13:11:30;;;;;;;0.70;0.70;;;;;;;-2.49;93.74;99231.31;4971050;28;20185;-85
2022/12/29 13:13:57;;;;;;;0.90;0.90;;;;;;;-2.50;94.06;99227.00;4934451;28;20078;-86